createdAt,value
2019-04-21T00:00:45.740Z,2.45
2019-04-21T00:03:18.117Z,2.98
2019-04-21T00:06:07.534Z,2.67
2019-04-21T00:11:02.873Z,3.05
2019-04-21T00:13:29.501Z,2.60
2019-04-21T00:15:48.850Z,2.70
2019-04-21T00:18:40.820Z,2.85
2019-04-21T00:21:11.049Z,2.65
2019-04-21T00:23:49.862Z,2.80
2019-04-21T00:26:23.832Z,2.75
2019-04-21T00:29:01.990Z,2.87
2019-04-21T00:31:23.057Z,2.80
2019-04-21T00:33:37.297Z,2.67
2019-04-21T00:36:10.183Z,2.72
2019-04-21T00:39:06.690Z,2.83
2019-04-21T00:41:25.078Z,2.90
2019-04-21T00:43:49.381Z,2.75
2019-04-21T00:46:12.348Z,2.75
2019-04-21T00:48:54.074Z,2.80
2019-04-21T00:51:35.992Z,2.65
2019-04-21T00:54:05.414Z,2.90
2019-04-21T00:56:27.646Z,2.85
2019-04-21T00:58:59.906Z,2.50
2019-04-21T01:01:26.727Z,3.00
2019-04-21T01:03:58.456Z,2.80
2019-04-21T01:06:33.483Z,2.60
2019-04-21T01:08:55.461Z,2.80
2019-04-21T01:11:29.771Z,2.90
2019-04-21T01:13:58.908Z,2.62
2019-04-21T01:16:29.518Z,2.77
2019-04-21T01:18:54.837Z,2.83
2019-04-21T01:21:13.987Z,2.80
2019-04-21T01:23:35.836Z,2.80
2019-04-21T01:26:19.727Z,2.67
2019-04-21T01:28:53.799Z,2.95
2019-04-21T01:31:22.937Z,2.60
2019-04-21T01:33:57.708Z,2.67
2019-04-21T01:36:26.120Z,2.70
2019-04-21T01:39:03.814Z,3.02
2019-04-21T01:41:29.335Z,2.50
2019-04-21T01:46:24.595Z,2.45
2019-04-21T01:48:46.001Z,2.83
2019-04-21T01:51:18.466Z,2.98
2019-04-21T01:54:16.006Z,2.60
2019-04-21T01:56:40.249Z,3.10
2019-04-21T01:59:01.314Z,2.72
2019-04-21T02:01:42.324Z,2.85
2019-04-21T02:04:14.137Z,2.80
2019-04-21T02:06:44.451Z,2.72
2019-04-21T02:09:10.188Z,2.72
2019-04-21T02:11:47.051Z,2.80
2019-04-21T02:14:17.491Z,2.98
2019-04-21T02:16:40.482Z,2.72
2019-04-21T02:19:08.242Z,2.80
2019-04-21T02:21:39.415Z,2.72
2019-04-21T02:24:23.636Z,2.80
2019-04-21T02:26:41.166Z,2.80
2019-04-21T02:29:14.312Z,2.80
2019-04-21T02:34:19.239Z,2.77
2019-04-21T02:39:21.117Z,2.90
2019-04-21T02:46:54.562Z,2.72
2019-04-21T02:49:45.352Z,2.67
2019-04-21T02:54:47.987Z,2.70
2019-04-21T02:57:08.585Z,2.90
2019-04-21T03:02:25.796Z,2.50
2019-04-21T03:09:57.920Z,2.80
2019-04-21T03:14:56.190Z,2.60
2019-04-21T03:17:22.354Z,2.70
2019-04-21T03:19:50.501Z,2.90
2019-04-21T03:22:22.608Z,2.77
2019-04-21T03:27:44.533Z,2.52
2019-04-21T03:35:25.730Z,2.50
2019-04-21T03:39:54.471Z,2.60
2019-04-21T03:42:27.097Z,2.80
2019-04-21T03:44:44.945Z,2.70
2019-04-21T03:47:24.903Z,2.80
2019-04-21T03:52:19.525Z,2.72
2019-04-21T03:55:30.966Z,2.90
2019-04-21T03:57:58.020Z,2.60
2019-04-21T04:00:06.596Z,2.55
2019-04-21T04:03:18.287Z,2.47
2019-04-21T04:05:59.134Z,2.60
2019-04-21T04:08:22.617Z,2.35
2019-04-21T04:10:50.465Z,2.72
2019-04-21T04:13:15.684Z,2.50
2019-04-21T04:15:45.332Z,2.55
2019-04-21T04:18:17.605Z,2.60
2019-04-21T04:20:48.059Z,2.72
2019-04-21T04:23:31.561Z,2.55
2019-04-21T04:25:43.383Z,2.58
2019-04-21T04:28:18.952Z,2.65
2019-04-21T04:30:46.186Z,2.50
2019-04-21T04:33:20.750Z,2.80
2019-04-21T04:35:52.903Z,2.70
2019-04-21T04:38:26.662Z,2.62
2019-04-21T04:40:59.817Z,2.60
2019-04-21T04:43:31.137Z,2.60
2019-04-21T04:45:56.471Z,2.55
2019-04-21T04:48:28.049Z,2.33
2019-04-21T04:53:32.791Z,2.67
2019-04-21T04:55:54.728Z,2.85
2019-04-21T04:58:29.238Z,2.60
2019-04-21T05:01:04.736Z,2.50
2019-04-21T05:03:47.420Z,2.60
2019-04-21T05:06:38.838Z,2.85
2019-04-21T05:11:30.916Z,2.70
2019-04-21T05:13:58.966Z,2.60
2019-04-21T05:16:24.081Z,2.50
2019-04-21T05:18:56.004Z,2.47
2019-04-21T05:23:44.163Z,2.60
2019-04-21T05:26:03.289Z,2.52
2019-04-21T05:28:33.800Z,2.72
2019-04-21T05:31:34.641Z,2.65
2019-04-21T05:34:06.089Z,2.67
2019-04-21T05:36:39.504Z,2.80
2019-04-21T05:39:10.415Z,2.60
2019-04-21T05:41:31.382Z,2.58
2019-04-21T05:44:13.358Z,2.30
2019-04-21T05:46:49.530Z,2.50
2019-04-21T05:49:29.759Z,2.60
2019-04-21T05:51:55.653Z,2.55
2019-04-21T05:54:38.878Z,2.50
2019-04-21T05:57:00.104Z,2.70
2019-04-21T05:59:33.948Z,2.60
2019-04-21T06:02:15.208Z,2.55
2019-04-21T06:04:48.213Z,2.50
2019-04-21T06:07:08.826Z,2.52
2019-04-21T06:09:34.932Z,2.50
2019-04-21T06:12:03.758Z,2.72
2019-04-21T06:14:37.532Z,2.72
2019-04-21T06:17:04.458Z,2.52
2019-04-21T06:19:36.778Z,2.60
2019-04-21T06:22:06.073Z,2.55
2019-04-21T06:24:40.475Z,2.55
2019-04-21T06:27:22.896Z,2.55
2019-04-21T06:29:28.592Z,2.30
2019-04-21T06:32:28.097Z,2.70
2019-04-21T06:34:40.760Z,2.62
2019-04-21T06:39:40.324Z,2.70
2019-04-21T06:42:07.739Z,2.60
2019-04-21T06:44:38.898Z,2.42
2019-04-21T06:47:09.815Z,2.40
2019-04-21T06:49:30.345Z,2.25
2019-04-21T06:52:20.558Z,2.42
2019-04-21T06:57:00.474Z,2.45
2019-04-21T06:59:31.854Z,2.60
2019-04-21T07:02:24.843Z,2.25
2019-04-21T07:04:36.997Z,2.62
2019-04-21T07:07:08.025Z,3.00
2019-04-21T07:09:51.338Z,3.17
2019-04-21T07:11:59.688Z,3.15
2019-04-21T07:14:47.895Z,2.83
2019-04-21T07:17:06.813Z,2.62
2019-04-21T07:19:46.731Z,2.70
2019-04-21T07:22:09.398Z,2.80
2019-04-21T07:24:37.134Z,2.80
2019-04-21T07:27:02.597Z,2.95
2019-04-21T07:29:41.574Z,2.90
2019-04-21T07:32:04.488Z,2.62
2019-04-21T07:34:33.467Z,2.80
2019-04-21T07:37:00.944Z,2.52
2019-04-21T07:39:29.251Z,2.92
2019-04-21T07:41:59.263Z,2.92
2019-04-21T07:44:28.514Z,2.87
2019-04-21T07:46:53.386Z,2.83
2019-04-21T07:49:53.128Z,3.08
2019-04-21T07:52:37.769Z,2.85
2019-04-21T07:55:15.347Z,2.87
2019-04-21T07:57:28.117Z,2.87
2019-04-21T08:02:33.126Z,2.90
2019-04-21T08:05:09.964Z,2.60
2019-04-21T08:07:37.954Z,2.75
2019-04-21T08:09:57.252Z,2.80
2019-04-21T08:12:24.276Z,2.70
2019-04-21T08:14:57.432Z,2.55
2019-04-21T08:17:34.831Z,2.90
2019-04-21T08:19:53.163Z,2.85
2019-04-21T08:22:35.033Z,3.00
2019-04-21T08:24:59.403Z,2.80
2019-04-21T08:27:35.409Z,2.77
2019-04-21T08:30:00.994Z,2.83
2019-04-21T08:32:36.444Z,2.85
2019-04-21T08:35:14.806Z,2.65
2019-04-21T08:37:26.979Z,2.72
2019-04-21T08:40:04.449Z,2.85
2019-04-21T08:42:27.124Z,2.77
2019-04-21T08:45:00.213Z,2.67
2019-04-21T08:47:29.405Z,2.80
2019-04-21T08:49:55.862Z,2.90
2019-04-21T08:52:36.872Z,2.90
2019-04-21T08:55:03.667Z,3.10
2019-04-21T08:57:47.607Z,2.87
2019-04-21T09:00:05.002Z,2.77
2019-04-21T09:02:40.408Z,2.77
2019-04-21T09:05:14.158Z,2.60
2019-04-21T09:07:39.438Z,2.77
2019-04-21T09:10:03.104Z,2.80
2019-04-21T09:12:38.787Z,2.80
2019-04-21T09:15:08.292Z,2.60
2019-04-21T09:17:30.330Z,2.42
2019-04-21T09:20:13.926Z,2.90
2019-04-21T09:22:37.708Z,2.35
2019-04-21T09:25:04.658Z,2.42
2019-04-21T09:27:32.307Z,2.90
2019-04-21T09:29:54.004Z,2.55
2019-04-21T09:32:22.137Z,2.80
2019-04-21T09:34:49.598Z,2.50
2019-04-21T09:37:29.931Z,2.60
2019-04-21T09:39:52.072Z,2.77
2019-04-21T09:42:19.779Z,2.92
2019-04-21T09:44:52.212Z,2.70
2019-04-21T09:47:22.887Z,2.67
2019-04-21T09:49:47.818Z,2.90
2019-04-21T09:52:21.050Z,2.77
2019-04-21T09:54:56.446Z,3.00
2019-04-21T09:57:29.950Z,3.15
2019-04-21T09:59:53.879Z,2.72
2019-04-21T10:02:20.072Z,3.27
2019-04-21T10:04:46.220Z,3.10
2019-04-21T10:07:24.590Z,3.00
2019-04-21T10:09:45.550Z,3.20
2019-04-21T10:12:14.286Z,2.80
2019-04-21T10:14:43.014Z,3.55
2019-04-21T10:17:25.108Z,2.60
2019-04-21T10:19:53.339Z,2.75
2019-04-21T10:22:21.466Z,2.83
2019-04-21T10:24:49.685Z,2.80
2019-04-21T10:27:18.908Z,2.55
2019-04-21T10:29:48.732Z,3.10
2019-04-21T10:32:21.049Z,2.30
2019-04-21T10:34:47.501Z,2.58
2019-04-21T10:37:16.681Z,2.80
2019-04-21T10:39:45.359Z,3.02
2019-04-21T10:42:13.746Z,2.70
2019-04-21T10:44:43.180Z,2.85
2019-04-21T10:47:13.072Z,2.60
2019-04-21T10:49:42.480Z,2.50
2019-04-21T10:52:13.000Z,2.58
2019-04-21T10:55:05.644Z,2.50
2019-04-21T10:57:12.761Z,2.40
2019-04-21T10:59:46.187Z,2.40
2019-04-21T11:02:12.799Z,2.60
2019-04-21T11:04:42.283Z,2.60
2019-04-21T11:07:17.546Z,2.75
2019-04-21T11:09:44.254Z,2.70
2019-04-21T11:12:13.554Z,2.60
2019-04-21T11:14:43.021Z,2.40
2019-04-21T11:17:12.267Z,2.40
2019-04-21T11:19:41.109Z,2.50
2019-04-21T11:22:10.456Z,2.60
2019-04-21T11:24:38.994Z,2.70
2019-04-21T11:27:08.709Z,2.40
2019-04-21T11:29:37.198Z,2.30
2019-04-21T11:32:05.488Z,2.25
2019-04-21T11:34:33.585Z,2.60
2019-04-21T11:37:02.383Z,2.20
2019-04-21T11:39:39.570Z,2.42
2019-04-21T11:42:03.766Z,2.47
2019-04-21T11:44:33.106Z,2.60
2019-04-21T11:47:02.770Z,2.80
2019-04-21T11:49:32.525Z,4.37
2019-04-21T11:52:00.967Z,8.40
2019-04-21T11:54:29.284Z,8.15
2019-04-21T11:56:57.412Z,13.10
2019-04-21T11:59:25.828Z,11.40
2019-04-21T12:01:54.241Z,7.75
2019-04-21T12:04:23.453Z,6.33
2019-04-21T12:06:52.871Z,7.05
2019-04-21T12:09:21.547Z,6.17
2019-04-21T12:11:49.669Z,5.37
2019-04-21T12:14:18.296Z,5.05
2019-04-21T12:16:48.751Z,4.70
2019-04-21T12:19:17.147Z,4.20
2019-04-21T12:21:57.939Z,4.60
2019-04-21T12:24:15.716Z,4.80
2019-04-21T12:26:44.482Z,3.90
2019-04-21T12:29:14.462Z,4.50
2019-04-21T12:31:45.478Z,4.47
2019-04-21T12:34:14.190Z,3.35
2019-04-21T12:36:43.676Z,3.77
2019-04-21T12:39:12.861Z,3.80
2019-04-21T12:41:42.499Z,3.92
2019-04-21T12:44:10.949Z,3.80
2019-04-21T12:46:40.163Z,3.72
2019-04-21T12:49:09.648Z,3.72
2019-04-21T12:51:38.079Z,3.90
2019-04-21T12:54:07.872Z,3.20
2019-04-21T12:56:36.281Z,4.35
2019-04-21T12:59:05.025Z,4.10
2019-04-21T13:01:34.918Z,3.50
2019-04-21T13:04:03.922Z,3.33
2019-04-21T13:06:32.275Z,3.08
2019-04-21T13:09:05.233Z,2.92
2019-04-21T13:11:31.007Z,3.02
2019-04-21T13:13:59.860Z,2.92
2019-04-21T13:16:29.257Z,2.62
2019-04-21T13:18:57.772Z,3.12
2019-04-21T13:21:26.039Z,2.67
2019-04-21T13:23:54.790Z,2.70
2019-04-21T13:26:35.889Z,2.72
2019-04-21T13:28:54.784Z,2.40
2019-04-21T13:31:24.471Z,2.70
2019-04-21T13:33:52.897Z,2.70
2019-04-21T13:36:21.361Z,3.90
2019-04-21T13:39:36.083Z,3.37
2019-04-21T13:41:47.514Z,2.70
2019-04-21T13:44:13.284Z,2.60
2019-04-21T13:46:42.984Z,2.60
2019-04-21T13:49:11.816Z,3.17
2019-04-21T13:51:41.632Z,2.72
2019-04-21T13:54:09.946Z,2.55
2019-04-21T13:56:38.555Z,2.50
2019-04-21T13:59:08.465Z,2.60
2019-04-21T14:01:36.922Z,2.33
2019-04-21T14:04:07.238Z,2.60
2019-04-21T14:06:36.377Z,2.60
2019-04-21T14:09:07.323Z,2.20
2019-04-21T14:11:35.736Z,2.47
2019-04-21T14:14:04.148Z,2.40
2019-04-21T14:16:33.895Z,2.22
2019-04-21T14:19:03.395Z,2.50
2019-04-21T14:21:31.678Z,2.55
2019-04-21T14:24:01.138Z,2.50
2019-04-21T14:26:29.999Z,2.50
2019-04-21T14:28:58.890Z,2.42
2019-04-21T14:31:28.425Z,2.40
2019-04-21T14:33:56.738Z,2.70
2019-04-21T14:36:26.440Z,2.20
2019-04-21T14:38:54.739Z,2.30
2019-04-21T14:41:24.162Z,2.30
2019-04-21T14:43:52.947Z,2.35
2019-04-21T14:46:29.125Z,2.35
2019-04-21T14:49:03.423Z,2.02
2019-04-21T14:51:39.121Z,2.40
2019-04-21T14:54:10.074Z,2.37
2019-04-21T14:56:39.647Z,2.30
2019-04-21T14:59:08.968Z,2.30
2019-04-21T15:01:37.829Z,2.27
2019-04-21T15:04:06.071Z,2.27
2019-04-21T15:06:34.271Z,2.20
2019-04-21T15:09:03.030Z,2.08
2019-04-21T15:11:31.945Z,2.60
2019-04-21T15:14:00.212Z,2.42
2019-04-21T15:16:29.079Z,2.50
2019-04-21T15:18:57.391Z,2.40
2019-04-21T15:21:25.862Z,2.15
2019-04-21T15:23:54.206Z,2.10
2019-04-21T15:26:22.309Z,2.08
2019-04-21T15:28:50.949Z,2.35
2019-04-21T15:31:27.186Z,2.40
2019-04-21T15:33:49.584Z,2.40
2019-04-21T15:36:18.721Z,2.25
2019-04-21T15:38:47.891Z,2.55
2019-04-21T15:41:16.476Z,2.40
2019-04-21T15:43:44.813Z,2.60
2019-04-21T15:46:13.222Z,2.50
2019-04-21T15:48:41.407Z,2.47
2019-04-21T15:51:11.055Z,2.30
2019-04-21T15:53:41.819Z,2.17
2019-04-21T15:56:12.989Z,2.25
2019-04-21T15:58:52.679Z,2.40
2019-04-21T16:01:22.832Z,2.35
2019-04-21T16:03:52.418Z,2.05
2019-04-21T16:06:21.577Z,2.47
2019-04-21T16:08:52.502Z,2.20
2019-04-21T16:11:19.934Z,2.25
2019-04-21T16:13:48.088Z,2.35
2019-04-21T16:16:16.728Z,2.12
2019-04-21T16:18:45.978Z,2.40
2019-04-21T16:21:15.794Z,2.47
2019-04-21T16:23:44.460Z,2.10
2019-04-21T16:26:12.827Z,2.40
2019-04-21T16:28:41.710Z,2.33
2019-04-21T16:31:10.239Z,2.30
2019-04-21T16:33:38.936Z,2.60
2019-04-21T16:36:09.672Z,2.30
2019-04-21T16:38:37.698Z,2.50
2019-04-21T16:41:09.195Z,2.30
2019-04-21T16:43:37.400Z,2.27
2019-04-21T16:46:06.853Z,2.35
2019-04-21T16:48:35.800Z,2.37
2019-04-21T16:51:04.169Z,2.10
2019-04-21T16:53:34.140Z,2.47
2019-04-21T16:56:15.274Z,2.10
2019-04-21T16:58:45.258Z,2.12
2019-04-21T17:01:22.402Z,2.08
2019-04-21T17:03:50.877Z,2.15
2019-04-21T17:06:19.382Z,2.10
2019-04-21T17:08:47.830Z,2.33
2019-04-21T17:11:20.686Z,2.10
2019-04-21T17:13:47.287Z,2.27
2019-04-21T17:16:44.702Z,2.20
2019-04-21T17:18:57.398Z,2.45
2019-04-21T17:21:16.764Z,2.20
2019-04-21T17:23:46.482Z,2.20
2019-04-21T17:26:15.216Z,2.37
2019-04-21T17:28:44.812Z,2.08
2019-04-21T17:31:13.182Z,2.40
2019-04-21T17:33:41.475Z,2.45
2019-04-21T17:36:11.212Z,2.22
2019-04-21T17:38:39.873Z,2.00
2019-04-21T17:41:15.578Z,2.00
2019-04-21T17:43:39.263Z,2.10
2019-04-21T17:46:08.975Z,2.30
2019-04-21T17:48:38.691Z,2.05
2019-04-21T17:51:14.939Z,2.12
2019-04-21T17:53:49.471Z,2.20
2019-04-21T17:56:41.279Z,2.20
2019-04-21T17:59:07.293Z,2.20
2019-04-21T18:01:39.386Z,2.00
2019-04-21T18:04:12.617Z,2.17
2019-04-21T18:06:36.711Z,2.30
2019-04-21T18:09:13.899Z,2.10
2019-04-21T18:11:37.182Z,2.10
2019-04-21T18:13:45.560Z,2.50
2019-04-21T18:16:25.307Z,2.30
2019-04-21T18:18:44.474Z,3.05
2019-04-21T18:21:30.445Z,3.30
2019-04-21T18:24:07.218Z,3.70
2019-04-21T18:26:40.495Z,4.47
2019-04-21T18:29:01.649Z,4.58
2019-04-21T18:31:33.914Z,4.87
2019-04-21T18:34:20.238Z,5.25
2019-04-21T18:36:52.192Z,4.50
2019-04-21T18:39:34.014Z,3.52
2019-04-21T18:42:09.348Z,3.45
2019-04-21T18:44:53.487Z,3.83
2019-04-21T18:47:17.610Z,3.92
2019-04-21T18:49:44.102Z,4.10
2019-04-21T18:52:22.297Z,3.87
2019-04-21T18:55:00.249Z,3.45
2019-04-21T18:57:22.835Z,3.75
2019-04-21T18:59:45.551Z,3.58
2019-04-21T19:02:17.461Z,3.80
2019-04-21T19:04:44.170Z,3.60
2019-04-21T19:07:27.546Z,3.60
2019-04-21T19:10:22.282Z,3.92
2019-04-21T19:12:36.579Z,3.60
2019-04-21T19:14:58.081Z,3.55
2019-04-21T19:20:09.000Z,3.30
2019-04-21T19:22:32.524Z,3.25
2019-04-21T19:25:04.773Z,3.62
2019-04-21T19:27:29.148Z,3.55
2019-04-21T19:30:05.360Z,3.50
2019-04-21T19:32:28.827Z,3.67
2019-04-21T19:34:45.513Z,3.47
2019-04-21T19:37:18.905Z,3.60
2019-04-21T19:40:00.548Z,3.70
2019-04-21T19:42:25.500Z,3.35
2019-04-21T19:45:03.306Z,3.60
2019-04-21T19:47:35.230Z,3.90
2019-04-21T19:50:00.297Z,3.50
2019-04-21T19:52:26.627Z,3.20
2019-04-21T19:54:48.185Z,3.70
2019-04-21T19:57:13.379Z,3.10
2019-04-21T19:59:47.857Z,3.45
2019-04-21T20:02:12.257Z,3.60
2019-04-21T20:04:50.121Z,3.47
2019-04-21T20:07:26.312Z,3.05
2019-04-21T20:09:57.554Z,2.90
2019-04-21T20:12:35.539Z,2.87
2019-04-21T20:15:08.789Z,3.30
2019-04-21T20:17:31.147Z,3.12
2019-04-21T20:19:40.331Z,3.10
2019-04-21T20:22:09.331Z,3.25
2019-04-21T20:24:39.589Z,3.20
2019-04-21T20:27:15.837Z,3.08
2019-04-21T20:30:00.311Z,3.30
2019-04-21T20:35:00.949Z,2.87
2019-04-21T20:37:26.584Z,2.87
2019-04-21T20:39:45.877Z,3.10
2019-04-21T20:42:21.581Z,3.42
2019-04-21T20:45:13.471Z,3.47
2019-04-21T20:47:16.003Z,2.95
2019-04-21T20:49:46.167Z,3.17
2019-04-21T20:52:30.452Z,2.80
2019-04-21T20:54:49.313Z,2.75
2019-04-21T20:57:24.125Z,2.90
2019-04-21T20:59:52.132Z,3.10
2019-04-21T21:02:20.305Z,3.10
2019-04-21T21:04:43.483Z,3.05
2019-04-21T21:07:34.689Z,3.20
2019-04-21T21:09:57.425Z,3.20
2019-04-21T21:12:34.326Z,3.83
2019-04-21T21:14:49.978Z,3.77
2019-04-21T21:17:34.481Z,3.30
2019-04-21T21:19:53.651Z,3.50
2019-04-21T21:22:14.343Z,3.77
2019-04-21T21:24:53.356Z,3.40
2019-04-21T21:27:19.624Z,3.70
2019-04-21T21:29:50.170Z,3.50
2019-04-21T21:32:21.327Z,3.55
2019-04-21T21:34:52.031Z,3.60
2019-04-21T21:37:44.081Z,3.50
2019-04-21T21:39:57.144Z,3.45
2019-04-21T21:42:07.318Z,3.42
2019-04-21T21:44:35.777Z,3.67
2019-04-21T21:47:22.717Z,3.70
2019-04-21T21:49:48.425Z,3.60
2019-04-21T21:52:12.845Z,3.42
2019-04-21T21:54:35.904Z,3.30
2019-04-21T21:57:04.945Z,3.27
2019-04-21T21:59:37.869Z,3.62
2019-04-21T22:02:03.930Z,3.30
2019-04-21T22:04:37.281Z,3.15
2019-04-21T22:07:11.220Z,3.30
2019-04-21T22:09:34.942Z,3.30
2019-04-21T22:12:06.616Z,3.12
2019-04-21T22:14:40.875Z,3.20
2019-04-21T22:17:17.089Z,2.90
2019-04-21T22:20:00.311Z,3.17
2019-04-21T22:22:21.060Z,3.10
2019-04-21T22:24:46.854Z,2.85
2019-04-21T22:27:03.158Z,3.08
2019-04-21T22:29:39.991Z,2.95
2019-04-21T22:32:09.533Z,2.80
2019-04-21T22:34:38.170Z,2.90
2019-04-21T22:37:20.145Z,3.17
2019-04-21T22:39:48.054Z,3.12
2019-04-21T22:42:08.710Z,3.02
2019-04-21T22:44:32.189Z,2.77
2019-04-21T22:47:08.541Z,3.00
2019-04-21T22:49:30.669Z,2.87
2019-04-21T22:52:02.919Z,3.10
2019-04-21T22:54:34.168Z,2.90
2019-04-21T22:57:05.179Z,3.12
2019-04-21T22:59:30.087Z,2.95
2019-04-21T23:01:59.441Z,2.90
2019-04-21T23:04:38.065Z,3.10
2019-04-21T23:07:05.101Z,3.10
2019-04-21T23:09:28.799Z,3.10
2019-04-21T23:11:58.436Z,3.10
2019-04-21T23:14:27.989Z,3.00
2019-04-21T23:17:14.867Z,3.37
2019-04-21T23:19:41.250Z,2.75
2019-04-21T23:22:14.704Z,3.20
2019-04-21T23:24:49.994Z,3.20
2019-04-21T23:27:11.871Z,3.02
2019-04-21T23:29:53.819Z,3.30
2019-04-21T23:32:13.124Z,2.90
2019-04-21T23:34:30.613Z,3.08
2019-04-21T23:37:03.193Z,3.00
2019-04-21T23:39:28.950Z,2.90
2019-04-21T23:41:56.999Z,3.00
2019-04-21T23:44:25.961Z,2.70
2019-04-21T23:46:59.934Z,3.10
2019-04-21T23:49:35.388Z,3.10
2019-04-21T23:52:00.794Z,3.00
2019-04-21T23:54:25.038Z,3.10
2019-04-21T23:56:53.848Z,3.30
2019-04-21T23:59:22.619Z,3.02
